createdAt,value
2023-02-01T00:00:31.748Z,100.00
2023-02-01T00:02:53.297Z,100.00
2023-02-01T00:05:15.136Z,100.00
2023-02-01T00:07:37.836Z,100.00
2023-02-01T00:09:59.276Z,100.00
2023-02-01T00:12:20.711Z,100.00
2023-02-01T00:14:42.139Z,100.00
2023-02-01T00:17:03.564Z,100.00
2023-02-01T00:19:25.092Z,100.00
2023-02-01T00:21:46.690Z,100.00
2023-02-01T00:24:10.437Z,100.00
2023-02-01T00:26:33.116Z,100.00
2023-02-01T00:28:54.704Z,100.00
2023-02-01T00:31:16.324Z,100.00
2023-02-01T00:33:38.330Z,100.00
2023-02-01T00:36:01.153Z,100.00
2023-02-01T00:38:22.595Z,100.00
2023-02-01T00:40:44.563Z,100.00
2023-02-01T00:43:06.187Z,100.00
2023-02-01T00:45:27.624Z,100.00
2023-02-01T00:47:49.081Z,100.00
2023-02-01T00:50:11.209Z,100.00
2023-02-01T00:52:32.716Z,100.00
2023-02-01T00:54:54.177Z,100.00
2023-02-01T00:57:15.845Z,100.00
2023-02-01T00:59:37.447Z,100.00
2023-02-01T01:01:58.934Z,100.00
2023-02-01T01:04:20.395Z,100.00
2023-02-01T01:06:41.864Z,100.00
2023-02-01T01:09:06.753Z,100.00
2023-02-01T01:11:31.389Z,100.00
2023-02-01T01:13:54.993Z,100.00
2023-02-01T01:16:16.820Z,100.00
2023-02-01T01:18:38.812Z,100.00
2023-02-01T01:21:01.379Z,100.00
2023-02-01T01:23:22.878Z,100.00
2023-02-01T01:25:44.286Z,100.00
2023-02-01T01:28:07.012Z,100.00
2023-02-01T01:30:28.552Z,100.00
2023-02-01T01:32:50.047Z,100.00
2023-02-01T01:35:12.620Z,100.00
2023-02-01T01:37:34.091Z,100.00
2023-02-01T01:39:56.819Z,100.00
2023-02-01T01:42:18.281Z,100.00
2023-02-01T01:45:01.006Z,100.00
2023-02-01T01:47:23.057Z,100.00
2023-02-01T01:49:44.861Z,100.00
2023-02-01T01:52:07.047Z,100.00
2023-02-01T01:54:33.469Z,100.00
2023-02-01T01:57:00.138Z,100.00
2023-02-01T01:59:24.741Z,100.00
2023-02-01T02:01:47.136Z,100.00
2023-02-01T02:04:08.771Z,100.00
2023-02-01T02:06:43.129Z,100.00
2023-02-01T02:09:07.022Z,100.00
2023-02-01T02:11:28.626Z,100.00
2023-02-01T02:13:53.485Z,100.00
2023-02-01T02:16:28.102Z,100.00
2023-02-01T02:19:09.081Z,100.00
2023-02-01T02:21:54.297Z,100.00
2023-02-01T02:24:32.989Z,100.00
2023-02-01T02:27:25.434Z,100.00
2023-02-01T02:30:14.344Z,100.00
2023-02-01T02:33:14.767Z,100.00
2023-02-01T02:36:02.248Z,100.00
2023-02-01T02:38:48.463Z,100.00
2023-02-01T02:41:36.671Z,100.00
2023-02-01T02:44:18.731Z,100.00
2023-02-01T02:47:06.055Z,100.00
2023-02-01T02:49:38.139Z,100.00
2023-02-01T02:52:27.356Z,100.00
2023-02-01T02:54:52.837Z,96.48
2023-02-01T02:57:38.191Z,95.29
2023-02-01T03:00:21.607Z,95.96
2023-02-01T03:03:02.263Z,97.34
2023-02-01T03:05:23.730Z,98.21
2023-02-01T03:07:45.228Z,98.36
2023-02-01T03:10:13.775Z,98.34
2023-02-01T03:12:59.040Z,98.08
2023-02-01T03:15:27.441Z,98.82
2023-02-01T03:17:51.108Z,98.86
2023-02-01T03:20:15.383Z,98.30
2023-02-01T03:22:40.846Z,98.68
2023-02-01T03:25:10.218Z,99.33
2023-02-01T03:27:49.923Z,99.56
2023-02-01T03:30:37.226Z,99.93
2023-02-01T03:33:02.325Z,100.00
2023-02-01T03:35:37.456Z,99.50
2023-02-01T03:38:18.154Z,99.32
2023-02-01T03:40:42.667Z,100.00
2023-02-01T03:43:08.268Z,100.00
2023-02-01T03:45:41.744Z,100.00
2023-02-01T03:48:05.408Z,100.00
2023-02-01T03:50:28.867Z,100.00
2023-02-01T03:52:56.461Z,100.00
2023-02-01T03:55:23.853Z,100.00
2023-02-01T03:57:51.939Z,100.00
2023-02-01T04:00:23.177Z,100.00
2023-02-01T04:02:45.202Z,100.00
2023-02-01T04:05:06.949Z,100.00
2023-02-01T04:07:28.402Z,100.00
2023-02-01T04:09:49.855Z,100.00
2023-02-01T04:12:11.285Z,100.00
2023-02-01T04:14:32.734Z,100.00
2023-02-01T04:16:54.316Z,100.00
2023-02-01T04:19:15.805Z,100.00
2023-02-01T04:21:37.253Z,99.75
2023-02-01T04:23:58.785Z,100.00
2023-02-01T04:26:21.207Z,100.00
2023-02-01T04:28:43.187Z,100.00
2023-02-01T04:31:04.873Z,100.00
2023-02-01T04:33:26.508Z,100.00
2023-02-01T04:35:48.752Z,100.00
2023-02-01T04:38:10.173Z,100.00
2023-02-01T04:40:31.615Z,100.00
2023-02-01T04:42:53.068Z,100.00
2023-02-01T04:45:15.854Z,100.00
2023-02-01T04:47:37.286Z,100.00
2023-02-01T04:49:58.819Z,100.00
2023-02-01T04:52:20.335Z,100.00
2023-02-01T04:54:41.774Z,100.00
2023-02-01T04:57:03.160Z,100.00
2023-02-01T04:59:24.653Z,100.00
2023-02-01T05:01:48.578Z,99.78
2023-02-01T05:04:10.340Z,98.71
2023-02-01T05:06:31.760Z,99.19
2023-02-01T05:08:53.205Z,98.66
2023-02-01T05:11:35.380Z,97.98
2023-02-01T05:13:56.922Z,98.38
2023-02-01T05:16:18.402Z,97.76
2023-02-01T05:18:39.997Z,97.45
2023-02-01T05:21:02.054Z,97.17
2023-02-01T05:23:23.504Z,96.23
2023-02-01T05:25:44.914Z,96.79
2023-02-01T05:28:06.357Z,95.70
2023-02-01T05:30:27.912Z,95.32
2023-02-01T05:32:53.413Z,95.35
2023-02-01T05:35:14.860Z,95.21
2023-02-01T05:37:36.507Z,94.64
2023-02-01T05:39:57.959Z,94.36
2023-02-01T05:42:19.552Z,95.24
2023-02-01T05:44:40.981Z,95.43
2023-02-01T05:47:02.389Z,96.40
2023-02-01T05:49:23.990Z,95.40
2023-02-01T05:51:45.403Z,96.35
2023-02-01T05:54:06.867Z,94.86
2023-02-01T05:56:28.355Z,95.81
2023-02-01T05:58:49.799Z,95.87
2023-02-01T06:01:11.339Z,95.85
2023-02-01T06:03:33.066Z,95.89
2023-02-01T06:05:54.713Z,96.11
2023-02-01T06:08:16.137Z,96.84
2023-02-01T06:10:37.568Z,96.03
2023-02-01T06:12:59.030Z,95.75
2023-02-01T06:15:20.546Z,96.54
2023-02-01T06:17:44.133Z,96.34
2023-02-01T06:20:07.621Z,97.11
2023-02-01T06:22:29.044Z,96.99
2023-02-01T06:24:50.514Z,97.39
2023-02-01T06:27:12.019Z,97.01
2023-02-01T06:29:34.147Z,96.80
2023-02-01T06:31:55.707Z,96.67
2023-02-01T06:34:17.188Z,97.51
2023-02-01T06:36:38.918Z,96.52
2023-02-01T06:39:00.846Z,96.17
2023-02-01T06:41:22.273Z,95.83
2023-02-01T06:43:44.655Z,96.01
2023-02-01T06:46:13.112Z,94.71
2023-02-01T06:48:35.482Z,96.16
2023-02-01T06:50:56.994Z,95.40
2023-02-01T06:53:18.438Z,94.57
2023-02-01T06:55:39.856Z,96.63
2023-02-01T06:58:03.106Z,95.44
2023-02-01T07:00:25.110Z,95.38
2023-02-01T07:02:46.847Z,95.43
2023-02-01T07:05:08.703Z,94.95
2023-02-01T07:07:30.123Z,96.13
2023-02-01T07:09:51.646Z,95.11
2023-02-01T07:12:13.085Z,95.56
2023-02-01T07:14:34.548Z,94.62
2023-02-01T07:16:55.975Z,95.61
2023-02-01T07:19:17.421Z,96.43
2023-02-01T07:21:38.839Z,95.00
2023-02-01T07:24:00.863Z,95.64
2023-02-01T07:26:22.871Z,96.37
2023-02-01T07:28:44.424Z,94.80
2023-02-01T07:31:11.643Z,94.05
2023-02-01T07:33:33.235Z,92.65
2023-02-01T07:35:54.993Z,94.33
2023-02-01T07:38:17.155Z,94.30
2023-02-01T07:40:38.651Z,93.97
2023-02-01T07:43:00.920Z,94.15
2023-02-01T07:45:23.076Z,93.80
2023-02-01T07:47:44.529Z,94.55
2023-02-01T07:50:06.105Z,94.35
2023-02-01T07:52:30.688Z,94.14
2023-02-01T07:54:52.122Z,93.27
2023-02-01T07:57:14.170Z,93.92
2023-02-01T07:59:35.612Z,93.83
2023-02-01T08:01:57.059Z,93.44
2023-02-01T08:04:18.511Z,94.30
2023-02-01T08:06:40.639Z,94.47
2023-02-01T08:09:03.510Z,94.33
2023-02-01T08:11:26.135Z,94.84
2023-02-01T08:13:48.557Z,94.26
2023-02-01T08:16:12.273Z,93.62
2023-02-01T08:18:34.643Z,93.45
2023-02-01T08:20:56.190Z,93.16
2023-02-01T08:23:18.251Z,93.43
2023-02-01T08:25:39.891Z,93.76
2023-02-01T08:28:01.334Z,93.35
2023-02-01T08:30:23.256Z,93.14
2023-02-01T08:32:44.871Z,92.93
2023-02-01T08:35:06.878Z,93.17
2023-02-01T08:37:28.319Z,91.22
2023-02-01T08:39:51.441Z,91.12
2023-02-01T08:42:31.551Z,92.71
2023-02-01T08:44:53.223Z,94.01
2023-02-01T08:47:14.644Z,93.45
2023-02-01T08:49:36.082Z,92.04
2023-02-01T08:52:00.944Z,92.00
2023-02-01T08:54:25.324Z,93.14
2023-02-01T08:56:46.784Z,93.09
2023-02-01T08:59:08.214Z,91.96
2023-02-01T09:01:29.784Z,92.98
2023-02-01T09:03:51.366Z,94.57
2023-02-01T09:06:14.569Z,96.74
2023-02-01T09:08:36.976Z,97.72
2023-02-01T09:11:08.103Z,96.32
2023-02-01T09:13:29.672Z,97.52
2023-02-01T09:15:52.285Z,96.55
2023-02-01T09:18:13.737Z,95.52
2023-02-01T09:20:35.203Z,95.50
2023-02-01T09:22:56.726Z,96.99
2023-02-01T09:25:18.459Z,95.91
2023-02-01T09:27:39.976Z,95.07
2023-02-01T09:30:01.475Z,94.17
2023-02-01T09:32:24.070Z,94.65
2023-02-01T09:34:45.589Z,93.45
2023-02-01T09:37:07.044Z,93.93
2023-02-01T09:39:31.104Z,93.14
2023-02-01T09:42:00.564Z,94.86
2023-02-01T09:44:44.350Z,94.29
2023-02-01T09:47:12.917Z,94.36
2023-02-01T09:49:43.662Z,93.59
2023-02-01T09:52:08.623Z,94.83
2023-02-01T09:54:41.754Z,92.94
2023-02-01T09:57:16.469Z,94.70
2023-02-01T09:59:59.360Z,93.19
2023-02-01T10:02:29.271Z,92.53
2023-02-01T10:04:50.938Z,93.36
2023-02-01T10:07:28.744Z,94.04
2023-02-01T10:10:00.445Z,93.50
2023-02-01T10:12:57.394Z,93.78
2023-02-01T10:15:50.190Z,94.50
2023-02-01T10:18:33.394Z,93.93
2023-02-01T10:21:27.097Z,92.28
2023-02-01T10:23:55.210Z,91.92
2023-02-01T10:26:23.131Z,93.60
2023-02-01T10:28:48.501Z,92.24
2023-02-01T10:31:10.696Z,92.55
2023-02-01T10:33:42.681Z,93.24
2023-02-01T10:36:18.111Z,94.21
2023-02-01T10:38:39.636Z,93.97
2023-02-01T10:41:13.357Z,93.32
2023-02-01T10:43:35.028Z,90.90
2023-02-01T10:45:56.497Z,92.63
2023-02-01T10:48:18.341Z,92.53
2023-02-01T10:50:47.247Z,91.65
2023-02-01T10:53:32.260Z,92.43
2023-02-01T10:55:55.559Z,91.83
2023-02-01T10:58:26.529Z,92.33
2023-02-01T11:01:06.710Z,92.62
2023-02-01T11:03:39.877Z,92.67
2023-02-01T11:06:04.937Z,93.51
2023-02-01T11:08:26.508Z,93.79
2023-02-01T11:10:48.203Z,92.31
2023-02-01T11:13:19.216Z,92.75
2023-02-01T11:15:45.409Z,91.76
2023-02-01T11:18:19.493Z,92.62
2023-02-01T11:20:42.998Z,92.15
2023-02-01T11:23:04.595Z,92.33
2023-02-01T11:25:26.881Z,92.26
2023-02-01T11:27:55.334Z,91.42
2023-02-01T11:30:20.153Z,92.12
2023-02-01T11:32:41.761Z,91.57
2023-02-01T11:35:06.175Z,91.44
2023-02-01T11:37:35.622Z,91.11
2023-02-01T11:39:59.593Z,91.08
2023-02-01T11:42:21.866Z,90.73
2023-02-01T11:44:48.061Z,89.96
2023-02-01T11:47:26.472Z,88.74
2023-02-01T11:49:53.954Z,89.96
2023-02-01T11:52:36.801Z,89.06
2023-02-01T11:55:24.347Z,89.50
2023-02-01T11:58:23.015Z,89.01
2023-02-01T12:01:11.575Z,88.66
2023-02-01T12:03:43.676Z,88.72
2023-02-01T12:06:26.839Z,87.08
2023-02-01T12:09:18.941Z,88.69
2023-02-01T12:12:04.981Z,87.83
2023-02-01T12:14:38.523Z,86.20
2023-02-01T12:17:39.723Z,87.76
2023-02-01T12:20:13.668Z,85.69
2023-02-01T12:23:02.768Z,87.78
2023-02-01T12:26:13.659Z,86.96
2023-02-01T12:28:56.744Z,86.30
2023-02-01T12:31:40.783Z,86.43
2023-02-01T12:34:19.123Z,87.36
2023-02-01T12:37:09.885Z,86.38
2023-02-01T12:39:38.405Z,86.75
2023-02-01T12:42:18.884Z,87.25
2023-02-01T12:45:02.123Z,84.45
2023-02-01T12:47:34.055Z,85.00
2023-02-01T12:50:06.989Z,84.53
2023-02-01T12:52:36.205Z,84.85
2023-02-01T12:55:21.563Z,85.77
2023-02-01T12:57:48.815Z,86.90
2023-02-01T13:00:36.225Z,85.64
2023-02-01T13:03:12.540Z,86.46
2023-02-01T13:06:03.718Z,86.05
2023-02-01T13:08:43.487Z,87.70
2023-02-01T13:11:19.059Z,86.98
2023-02-01T13:13:53.639Z,88.00
2023-02-01T13:16:23.152Z,86.32
2023-02-01T13:18:50.119Z,89.03
2023-02-01T13:21:18.720Z,85.50
2023-02-01T13:23:42.918Z,84.96
2023-02-01T13:26:04.636Z,85.51
2023-02-01T13:28:30.322Z,85.10
2023-02-01T13:31:40.611Z,85.25
2023-02-01T13:34:37.779Z,85.32
2023-02-01T13:37:33.211Z,85.87
2023-02-01T13:40:22.288Z,85.83
2023-02-01T13:42:51.020Z,83.60
2023-02-01T13:45:23.583Z,83.75
2023-02-01T13:47:50.694Z,83.12
2023-02-01T13:50:17.919Z,82.89
2023-02-01T13:52:44.341Z,84.51
2023-02-01T13:55:21.230Z,82.25
2023-02-01T13:57:45.938Z,82.34
2023-02-01T14:00:31.554Z,81.68
2023-02-01T14:03:02.092Z,81.66
2023-02-01T14:05:23.826Z,82.24
2023-02-01T14:08:07.350Z,81.86
2023-02-01T14:10:55.306Z,81.79
2023-02-01T14:13:42.115Z,83.26
2023-02-01T14:16:03.729Z,81.27
2023-02-01T14:18:34.419Z,82.64
2023-02-01T14:21:25.636Z,85.65
2023-02-01T14:23:55.563Z,85.64
2023-02-01T14:26:20.304Z,86.80
2023-02-01T14:28:55.321Z,87.45
2023-02-01T14:31:32.564Z,87.55
2023-02-01T14:34:00.239Z,88.88
2023-02-01T14:36:21.806Z,89.38
2023-02-01T14:38:50.466Z,87.94
2023-02-01T14:41:34.366Z,89.81
2023-02-01T14:44:04.670Z,89.65
2023-02-01T14:47:05.613Z,90.36
2023-02-01T14:49:31.863Z,89.80
2023-02-01T14:51:54.234Z,89.32
2023-02-01T14:54:16.202Z,90.14
2023-02-01T14:56:37.902Z,88.70
2023-02-01T14:59:10.787Z,89.38
2023-02-01T15:01:38.785Z,88.47
2023-02-01T15:04:10.754Z,88.26
2023-02-01T15:06:38.123Z,86.85
2023-02-01T15:09:14.964Z,87.96
2023-02-01T15:12:25.161Z,87.37
2023-02-01T15:14:50.309Z,87.90
2023-02-01T15:17:26.975Z,87.86
2023-02-01T15:19:59.475Z,87.40
2023-02-01T15:22:21.287Z,86.58
2023-02-01T15:24:42.753Z,87.61
2023-02-01T15:27:06.558Z,86.97
2023-02-01T15:29:33.228Z,86.06
2023-02-01T15:31:55.196Z,85.63
2023-02-01T15:34:17.995Z,87.29
2023-02-01T15:36:43.838Z,86.69
2023-02-01T15:39:24.034Z,86.55
2023-02-01T15:41:49.526Z,87.63
2023-02-01T15:44:29.801Z,86.58
2023-02-01T15:46:51.956Z,85.78
2023-02-01T15:49:24.475Z,86.29
2023-02-01T15:51:48.295Z,87.71
2023-02-01T15:54:20.688Z,88.58
2023-02-01T15:56:42.610Z,91.04
2023-02-01T15:59:07.357Z,88.83
2023-02-01T16:01:29.819Z,92.44
2023-02-01T16:04:03.898Z,93.16
2023-02-01T16:06:25.261Z,94.51
2023-02-01T16:08:52.297Z,94.68
2023-02-01T16:11:13.657Z,95.11
2023-02-01T16:13:35.233Z,94.18
2023-02-01T16:15:56.686Z,94.90
2023-02-01T16:18:19.128Z,95.40
2023-02-01T16:20:43.069Z,96.84
2023-02-01T16:23:05.200Z,97.58
2023-02-01T16:25:26.802Z,96.98
2023-02-01T16:27:49.155Z,97.56
2023-02-01T16:30:11.666Z,98.01
2023-02-01T16:32:33.108Z,98.46
2023-02-01T16:34:54.779Z,98.69
2023-02-01T16:37:23.103Z,99.20
2023-02-01T16:39:44.619Z,98.82
2023-02-01T16:42:16.773Z,98.21
2023-02-01T16:44:38.263Z,98.40
2023-02-01T16:46:59.758Z,98.40
2023-02-01T16:49:25.501Z,98.44
2023-02-01T16:51:48.185Z,98.57
2023-02-01T16:54:09.755Z,98.89
2023-02-01T16:56:33.995Z,98.51
2023-02-01T16:58:55.500Z,98.00
2023-02-01T17:01:19.616Z,98.58
2023-02-01T17:03:41.552Z,99.08
2023-02-01T17:06:03.338Z,99.10
2023-02-01T17:08:35.252Z,99.32
2023-02-01T17:10:56.922Z,98.86
2023-02-01T17:13:18.388Z,98.56
2023-02-01T17:15:39.932Z,99.15
2023-02-01T17:18:02.811Z,99.57
2023-02-01T17:20:33.039Z,99.68
2023-02-01T17:22:54.638Z,100.00
2023-02-01T17:25:19.318Z,100.00
2023-02-01T17:27:42.010Z,100.00
2023-02-01T17:30:04.315Z,99.72
2023-02-01T17:32:26.141Z,99.76
2023-02-01T17:34:48.159Z,100.00
2023-02-01T17:37:31.919Z,100.00
2023-02-01T17:39:56.623Z,99.15
2023-02-01T17:42:18.048Z,100.00
2023-02-01T17:44:39.529Z,99.64
2023-02-01T17:47:01.024Z,100.00
2023-02-01T17:49:22.620Z,100.00
2023-02-01T17:51:44.101Z,100.00
2023-02-01T17:54:05.623Z,100.00
2023-02-01T17:56:28.398Z,100.00
2023-02-01T17:58:50.157Z,100.00
2023-02-01T18:01:21.986Z,100.00
2023-02-01T18:03:43.468Z,100.00
2023-02-01T18:06:07.307Z,100.00
2023-02-01T18:08:30.916Z,100.00
2023-02-01T18:11:01.259Z,100.00
2023-02-01T18:13:22.725Z,100.00
2023-02-01T18:15:44.163Z,100.00
2023-02-01T18:18:06.292Z,100.00
2023-02-01T18:20:28.442Z,100.00
2023-02-01T18:22:50.933Z,100.00
2023-02-01T18:25:38.234Z,100.00
2023-02-01T18:27:59.714Z,100.00
2023-02-01T18:30:23.367Z,100.00
2023-02-01T18:32:45.217Z,100.00
2023-02-01T18:35:27.627Z,100.00
2023-02-01T18:37:50.473Z,100.00
2023-02-01T18:40:17.544Z,100.00
2023-02-01T18:42:38.961Z,100.00
2023-02-01T18:45:01.336Z,100.00
2023-02-01T18:47:22.830Z,100.00
2023-02-01T18:49:44.266Z,100.00
2023-02-01T18:52:06.595Z,100.00
2023-02-01T18:54:28.384Z,100.00
2023-02-01T18:56:49.816Z,100.00
2023-02-01T18:59:11.899Z,100.00
2023-02-01T19:01:33.488Z,100.00
2023-02-01T19:04:08.078Z,100.00
2023-02-01T19:06:31.996Z,100.00
2023-02-01T19:08:56.144Z,100.00
2023-02-01T19:11:17.644Z,100.00
2023-02-01T19:13:39.910Z,100.00
2023-02-01T19:16:09.495Z,100.00
2023-02-01T19:18:30.955Z,100.00
2023-02-01T19:20:54.872Z,100.00
2023-02-01T19:23:18.588Z,100.00
2023-02-01T19:25:43.801Z,100.00
2023-02-01T19:28:05.195Z,100.00
2023-02-01T19:30:26.709Z,100.00
2023-02-01T19:32:48.583Z,100.00
2023-02-01T19:35:13.300Z,100.00
2023-02-01T19:37:34.720Z,100.00
2023-02-01T19:39:56.370Z,100.00
2023-02-01T19:42:17.881Z,100.00
2023-02-01T19:44:39.451Z,100.00
2023-02-01T19:47:01.135Z,100.00
2023-02-01T19:49:22.650Z,100.00
2023-02-01T19:51:44.999Z,100.00
2023-02-01T19:54:09.363Z,100.00
2023-02-01T19:56:30.803Z,100.00
2023-02-01T19:58:52.203Z,100.00
2023-02-01T20:01:13.321Z,100.00
2023-02-01T20:03:34.818Z,100.00
2023-02-01T20:05:58.369Z,100.00
2023-02-01T20:08:20.904Z,100.00
2023-02-01T20:10:46.275Z,100.00
2023-02-01T20:13:07.745Z,100.00
2023-02-01T20:15:29.272Z,100.00
2023-02-01T20:17:50.717Z,100.00
2023-02-01T20:20:12.288Z,100.00
2023-02-01T20:22:33.775Z,100.00
2023-02-01T20:24:57.491Z,100.00
2023-02-01T20:27:19.872Z,100.00
2023-02-01T20:29:41.607Z,100.00
2023-02-01T20:32:04.143Z,100.00
2023-02-01T20:34:25.592Z,100.00
2023-02-01T20:36:47.170Z,100.00
2023-02-01T20:39:10.775Z,100.00
2023-02-01T20:41:32.236Z,100.00
2023-02-01T20:43:54.175Z,100.00
2023-02-01T20:46:16.235Z,100.00
2023-02-01T20:48:37.923Z,100.00
2023-02-01T20:51:00.011Z,100.00
2023-02-01T20:53:26.806Z,100.00
2023-02-01T20:55:53.237Z,100.00
2023-02-01T20:58:14.688Z,100.00
2023-02-01T21:00:36.197Z,100.00
2023-02-01T21:02:57.644Z,100.00
2023-02-01T21:05:19.077Z,100.00
2023-02-01T21:07:42.257Z,100.00
2023-02-01T21:10:05.225Z,100.00
2023-02-01T21:12:26.665Z,100.00
2023-02-01T21:14:48.104Z,100.00
2023-02-01T21:17:09.647Z,100.00
2023-02-01T21:19:42.677Z,100.00
2023-02-01T21:22:04.603Z,100.00
2023-02-01T21:24:26.100Z,100.00
2023-02-01T21:26:47.631Z,100.00
2023-02-01T21:29:11.502Z,100.00
2023-02-01T21:31:32.960Z,100.00
2023-02-01T21:33:54.454Z,100.00
2023-02-01T21:36:19.979Z,100.00
2023-02-01T21:38:41.441Z,100.00
2023-02-01T21:41:22.167Z,100.00
2023-02-01T21:43:43.613Z,100.00
2023-02-01T21:46:05.271Z,100.00
2023-02-01T21:48:26.834Z,100.00
2023-02-01T21:50:48.255Z,100.00
2023-02-01T21:53:09.746Z,100.00
2023-02-01T21:55:31.166Z,100.00
2023-02-01T21:57:52.659Z,100.00
2023-02-01T22:00:14.760Z,100.00
2023-02-01T22:02:36.275Z,100.00
2023-02-01T22:04:57.832Z,100.00
2023-02-01T22:07:19.675Z,100.00
2023-02-01T22:09:41.597Z,100.00
2023-02-01T22:12:03.732Z,100.00
2023-02-01T22:14:25.197Z,100.00
2023-02-01T22:16:47.170Z,100.00
2023-02-01T22:19:15.431Z,100.00
2023-02-01T22:21:38.875Z,100.00
2023-02-01T22:24:00.409Z,100.00
2023-02-01T22:26:22.684Z,100.00
2023-02-01T22:28:44.611Z,100.00
2023-02-01T22:31:08.006Z,100.00
2023-02-01T22:33:29.645Z,100.00
2023-02-01T22:35:51.170Z,100.00
2023-02-01T22:38:12.635Z,100.00
2023-02-01T22:40:34.073Z,100.00
2023-02-01T22:42:55.516Z,100.00
2023-02-01T22:45:16.921Z,100.00
2023-02-01T22:47:38.352Z,100.00
2023-02-01T22:49:59.794Z,100.00
2023-02-01T22:52:21.308Z,100.00
2023-02-01T22:54:42.762Z,100.00
2023-02-01T22:57:04.440Z,100.00
2023-02-01T22:59:26.312Z,100.00
2023-02-01T23:01:47.755Z,100.00
2023-02-01T23:04:12.479Z,100.00
2023-02-01T23:06:34.530Z,100.00
2023-02-01T23:08:57.903Z,100.00
2023-02-01T23:11:19.326Z,100.00
2023-02-01T23:13:41.138Z,100.00
2023-02-01T23:16:12.579Z,100.00
2023-02-01T23:18:34.427Z,100.00
2023-02-01T23:20:55.906Z,100.00
2023-02-01T23:23:17.363Z,100.00
2023-02-01T23:25:38.805Z,100.00
2023-02-01T23:28:00.265Z,100.00
2023-02-01T23:30:21.883Z,100.00
2023-02-01T23:32:43.746Z,100.00
2023-02-01T23:35:07.260Z,100.00
2023-02-01T23:37:28.893Z,100.00
2023-02-01T23:39:51.922Z,100.00
2023-02-01T23:42:13.334Z,100.00
2023-02-01T23:44:34.745Z,100.00
2023-02-01T23:46:56.274Z,100.00
2023-02-01T23:49:17.997Z,100.00
2023-02-01T23:51:40.368Z,100.00
2023-02-01T23:54:02.078Z,100.00
2023-02-01T23:56:39.032Z,100.00
2023-02-01T23:59:02.652Z,100.00
